$GPRMC,000000.000,V,5201.632,N,01635.473,E,0.00,0.00,010070,,*12 $GPGGA,000000.000,5201.632,N,01635.473,E,0,00,0.0,0.000,M,0.0,M,,*6D $GPRMC,000000.000,V,5201.643,N,01635.472,E,0.00,0.00,010070,,*15 $GPGGA,000000.000,5201.643,N,01635.472,E,0,00,0.0,0.000,M,0.0,M,,*6A $GPRMC,000000.000,V,5201.642,N,01635.356,E,0.00,0.00,010070,,*15 $GPGGA,000000.000,5201.642,N,01635.356,E,0,00,0.0,0.000,M,0.0,M,,*6A $GPRMC,000000.000,V,5201.641,N,01635.144,E,0.00,0.00,010070,,*17 $GPGGA,000000.000,5201.641,N,01635.144,E,0,00,0.0,0.000,M,0.0,M,,*68 $GPRMC,000000.000,V,5201.635,N,01634.973,E,0.00,0.00,010070,,*19 $GPGGA,000000.000,5201.635,N,01634.973,E,0,00,0.0,0.000,M,0.0,M,,*66 $GPRMC,000000.000,V,5201.632,N,01634.809,E,0.00,0.00,010070,,*12 $GPGGA,000000.000,5201.632,N,01634.809,E,0,00,0.0,0.000,M,0.0,M,,*6D $GPRMC,000000.000,V,5201.637,N,01634.697,E,0.00,0.00,010070,,*1E $GPGGA,000000.000,5201.637,N,01634.697,E,0,00,0.0,0.000,M,0.0,M,,*61 $GPRMC,000000.000,V,5201.647,N,01634.573,E,0.00,0.00,010070,,*10 $GPGGA,000000.000,5201.647,N,01634.573,E,0,00,0.0,0.000,M,0.0,M,,*6F $GPRMC,000000.000,V,5201.661,N,01634.464,E,0.00,0.00,010070,,*13 $GPGGA,000000.000,5201.661,N,01634.464,E,0,00,0.0,0.000,M,0.0,M,,*6C $GPRMC,000000.000,V,5201.676,N,01634.317,E,0.00,0.00,010070,,*16 $GPGGA,000000.000,5201.676,N,01634.317,E,0,00,0.0,0.000,M,0.0,M,,*69 $GPRMC,000000.000,V,5201.692,N,01634.192,E,0.00,0.00,010070,,*13 $GPGGA,000000.000,5201.692,N,01634.192,E,0,00,0.0,0.000,M,0.0,M,,*6C $GPRMC,000000.000,V,5201.711,N,01634.064,E,0.00,0.00,010070,,*11 $GPGGA,000000.000,5201.711,N,01634.064,E,0,00,0.0,0.000,M,0.0,M,,*6E $GPRMC,000000.000,V,5201.723,N,01633.979,E,0.00,0.00,010070,,*12 $GPGGA,000000.000,5201.723,N,01633.979,E,0,00,0.0,0.000,M,0.0,M,,*6D $GPRMC,000000.000,V,5201.745,N,01633.895,E,0.00,0.00,010070,,*11 $GPGGA,000000.000,5201.745,N,01633.895,E,0,00,0.0,0.000,M,0.0,M,,*6E $GPRMC,000000.000,V,5201.813,N,01633.673,E,0.00,0.00,010070,,*1B $GPGGA,000000.000,5201.813,N,01633.673,E,0,00,0.0,0.000,M,0.0,M,,*64 $GPRMC,000000.000,V,5201.852,N,01633.546,E,0.00,0.00,010070,,*1B $GPGGA,000000.000,5201.852,N,01633.546,E,0,00,0.0,0.000,M,0.0,M,,*64 $GPRMC,000000.000,V,5201.885,N,01633.440,E,0.00,0.00,010070,,*16 $GPGGA,000000.000,5201.885,N,01633.440,E,0,00,0.0,0.000,M,0.0,M,,*69 $GPRMC,000000.000,V,5201.922,N,01633.321,E,0.00,0.00,010070,,*1A $GPGGA,000000.000,5201.922,N,01633.321,E,0,00,0.0,0.000,M,0.0,M,,*65 $GPRMC,000000.000,V,5201.970,N,01633.167,E,0.00,0.00,010070,,*1D $GPGGA,000000.000,5201.970,N,01633.167,E,0,00,0.0,0.000,M,0.0,M,,*62 $GPRMC,000000.000,V,5201.995,N,01633.086,E,0.00,0.00,010070,,*18 $GPGGA,000000.000,5201.995,N,01633.086,E,0,00,0.0,0.000,M,0.0,M,,*67 $GPRMC,000000.000,V,5202.027,N,01632.978,E,0.00,0.00,010070,,*12 $GPGGA,000000.000,5202.027,N,01632.978,E,0,00,0.0,0.000,M,0.0,M,,*6D $GPRMC,000000.000,V,5202.058,N,01632.901,E,0.00,0.00,010070,,*14 $GPGGA,000000.000,5202.058,N,01632.901,E,0,00,0.0,0.000,M,0.0,M,,*6B $GPRMC,000000.000,V,5202.093,N,01632.822,E,0.00,0.00,010070,,*13 $GPGGA,000000.000,5202.093,N,01632.822,E,0,00,0.0,0.000,M,0.0,M,,*6C $GPRMC,000000.000,V,5202.111,N,01632.774,E,0.00,0.00,010070,,*14 $GPGGA,000000.000,5202.111,N,01632.774,E,0,00,0.0,0.000,M,0.0,M,,*6B $GPRMC,000000.000,V,5202.120,N,01632.746,E,0.00,0.00,010070,,*17 $GPGGA,000000.000,5202.120,N,01632.746,E,0,00,0.0,0.000,M,0.0,M,,*68 $GPRMC,000000.000,V,5202.124,N,01632.708,E,0.00,0.00,010070,,*19 $GPGGA,000000.000,5202.124,N,01632.708,E,0,00,0.0,0.000,M,0.0,M,,*66 $GPRMC,000000.000,V,5202.124,N,01632.665,E,0.00,0.00,010070,,*13 $GPGGA,000000.000,5202.124,N,01632.665,E,0,00,0.0,0.000,M,0.0,M,,*6C $GPRMC,000000.000,V,5202.127,N,01632.616,E,0.00,0.00,010070,,*14 $GPGGA,000000.000,5202.127,N,01632.616,E,0,00,0.0,0.000,M,0.0,M,,*6B $GPRMC,000000.000,V,5202.137,N,01632.579,E,0.00,0.00,010070,,*1F $GPGGA,000000.000,5202.137,N,01632.579,E,0,00,0.0,0.000,M,0.0,M,,*60 $GPRMC,000000.000,V,5202.152,N,01632.531,E,0.00,0.00,010070,,*10 $GPGGA,000000.000,5202.152,N,01632.531,E,0,00,0.0,0.000,M,0.0,M,,*6F $GPRMC,000000.000,V,5202.165,N,01632.492,E,0.00,0.00,010070,,*1C $GPGGA,000000.000,5202.165,N,01632.492,E,0,00,0.0,0.000,M,0.0,M,,*63 $GPRMC,000000.000,V,5202.175,N,01632.486,E,0.00,0.00,010070,,*18 $GPGGA,000000.000,5202.175,N,01632.486,E,0,00,0.0,0.000,M,0.0,M,,*67 $GPRMC,000000.000,V,5202.177,N,01632.466,E,0.00,0.00,010070,,*14 $GPGGA,000000.000,5202.177,N,01632.466,E,0,00,0.0,0.000,M,0.0,M,,*6B $GPRMC,000000.000,V,5202.184,N,01632.439,E,0.00,0.00,010070,,*12 $GPGGA,000000.000,5202.184,N,01632.439,E,0,00,0.0,0.000,M,0.0,M,,*6D $GPRMC,000000.000,V,5202.202,N,01632.395,E,0.00,0.00,010070,,*1E $GPGGA,000000.000,5202.202,N,01632.395,E,0,00,0.0,0.000,M,0.0,M,,*61 $GPRMC,000000.000,V,5202.226,N,01632.336,E,0.00,0.00,010070,,*11 $GPGGA,000000.000,5202.226,N,01632.336,E,0,00,0.0,0.000,M,0.0,M,,*6E $GPRMC,000000.000,V,5202.258,N,01632.260,E,0.00,0.00,010070,,*1A $GPGGA,000000.000,5202.258,N,01632.260,E,0,00,0.0,0.000,M,0.0,M,,*65 $GPRMC,000000.000,V,5202.269,N,01632.241,E,0.00,0.00,010070,,*1B $GPGGA,000000.000,5202.269,N,01632.241,E,0,00,0.0,0.000,M,0.0,M,,*64 $GPRMC,000000.000,V,5202.278,N,01632.244,E,0.00,0.00,010070,,*1E $GPGGA,000000.000,5202.278,N,01632.244,E,0,00,0.0,0.000,M,0.0,M,,*61 $GPRMC,000000.000,V,5202.301,N,01632.266,E,0.00,0.00,010070,,*11 $GPGGA,000000.000,5202.301,N,01632.266,E,0,00,0.0,0.000,M,0.0,M,,*6E $GPRMC,000000.000,V,5202.453,N,01632.453,E,0.00,0.00,010070,,*11 $GPGGA,000000.000,5202.453,N,01632.453,E,0,00,0.0,0.000,M,0.0,M,,*6E $GPRMC,000000.000,V,5202.522,N,01632.538,E,0.00,0.00,010070,,*1A $GPGGA,000000.000,5202.522,N,01632.538,E,0,00,0.0,0.000,M,0.0,M,,*65 $GPRMC,000000.000,V,5202.561,N,01632.579,E,0.00,0.00,010070,,*18 $GPGGA,000000.000,5202.561,N,01632.579,E,0,00,0.0,0.000,M,0.0,M,,*67 $GPRMC,000000.000,V,5202.596,N,01632.578,E,0.00,0.00,010070,,*11 $GPGGA,000000.000,5202.596,N,01632.578,E,0,00,0.0,0.000,M,0.0,M,,*6E $GPRMC,000000.000,V,5202.643,N,01632.564,E,0.00,0.00,010070,,*17 $GPGGA,000000.000,5202.643,N,01632.564,E,0,00,0.0,0.000,M,0.0,M,,*68 $GPRMC,000000.000,V,5202.746,N,01632.531,E,0.00,0.00,010070,,*13 $GPGGA,000000.000,5202.746,N,01632.531,E,0,00,0.0,0.000,M,0.0,M,,*6C $GPRMC,000000.000,V,5202.814,N,01632.513,E,0.00,0.00,010070,,*1B $GPGGA,000000.000,5202.814,N,01632.513,E,0,00,0.0,0.000,M,0.0,M,,*64 $GPRMC,000000.000,V,5202.943,N,01632.476,E,0.00,0.00,010070,,*1A $GPGGA,000000.000,5202.943,N,01632.476,E,0,00,0.0,0.000,M,0.0,M,,*65 $GPRMC,000000.000,V,5203.039,N,01632.448,E,0.00,0.00,010070,,*12 $GPGGA,000000.000,5203.039,N,01632.448,E,0,00,0.0,0.000,M,0.0,M,,*6D $GPRMC,000000.000,V,5203.130,N,01632.421,E,0.00,0.00,010070,,*15 $GPGGA,000000.000,5203.130,N,01632.421,E,0,00,0.0,0.000,M,0.0,M,,*6A $GPRMC,000000.000,V,5203.294,N,01632.373,E,0.00,0.00,010070,,*18 $GPGGA,000000.000,5203.294,N,01632.373,E,0,00,0.0,0.000,M,0.0,M,,*67 $GPRMC,000000.000,V,5203.375,N,01632.347,E,0.00,0.00,010070,,*11 $GPGGA,000000.000,5203.375,N,01632.347,E,0,00,0.0,0.000,M,0.0,M,,*6E $GPRMC,000000.000,V,5203.442,N,01632.327,E,0.00,0.00,010070,,*14 $GPGGA,000000.000,5203.442,N,01632.327,E,0,00,0.0,0.000,M,0.0,M,,*6B $GPRMC,000000.000,V,5203.527,N,01632.298,E,0.00,0.00,010070,,*13 $GPGGA,000000.000,5203.527,N,01632.298,E,0,00,0.0,0.000,M,0.0,M,,*6C $GPRMC,000000.000,V,5203.582,N,01632.282,E,0.00,0.00,010070,,*17 $GPGGA,000000.000,5203.582,N,01632.282,E,0,00,0.0,0.000,M,0.0,M,,*68 $GPRMC,000000.000,V,5203.611,N,01632.284,E,0.00,0.00,010070,,*18 $GPGGA,000000.000,5203.611,N,01632.284,E,0,00,0.0,0.000,M,0.0,M,,*67 $GPRMC,000000.000,V,5203.682,N,01632.301,E,0.00,0.00,010070,,*1E $GPGGA,000000.000,5203.682,N,01632.301,E,0,00,0.0,0.000,M,0.0,M,,*61 $GPRMC,000000.000,V,5203.871,N,01632.346,E,0.00,0.00,010070,,*1F $GPGGA,000000.000,5203.871,N,01632.346,E,0,00,0.0,0.000,M,0.0,M,,*60 $GPRMC,000000.000,V,5204.018,N,01632.385,E,0.00,0.00,010070,,*10 $GPGGA,000000.000,5204.018,N,01632.385,E,0,00,0.0,0.000,M,0.0,M,,*6F $GPRMC,000000.000,V,5204.162,N,01632.423,E,0.00,0.00,010070,,*17 $GPGGA,000000.000,5204.162,N,01632.423,E,0,00,0.0,0.000,M,0.0,M,,*68 $GPRMC,000000.000,V,5204.236,N,01632.439,E,0.00,0.00,010070,,*1E $GPGGA,000000.000,5204.236,N,01632.439,E,0,00,0.0,0.000,M,0.0,M,,*61 $GPRMC,000000.000,V,5204.300,N,01632.456,E,0.00,0.00,010070,,*13 $GPGGA,000000.000,5204.300,N,01632.456,E,0,00,0.0,0.000,M,0.0,M,,*6C